createdAt,value
2023-04-09T00:00:18.737Z,58.79
2023-04-09T00:01:18.750Z,62.99
2023-04-09T00:02:18.846Z,63.46
2023-04-09T00:03:18.854Z,61.57
2023-04-09T00:04:18.836Z,56.74
2023-04-09T00:05:18.770Z,59.59
2023-04-09T00:06:18.767Z,61.19
2023-04-09T00:07:18.785Z,60.12
2023-04-09T00:08:18.853Z,60.60
2023-04-09T00:09:18.830Z,61.35
2023-04-09T00:10:18.838Z,60.49
2023-04-09T00:11:18.836Z,60.62
2023-04-09T00:12:18.813Z,61.16
2023-04-09T00:13:28.331Z,65.48
2023-04-09T00:14:19.846Z,64.39
2023-04-09T00:15:30.007Z,64.47
2023-04-09T00:16:19.905Z,65.57
2023-04-09T00:17:18.841Z,63.63
2023-04-09T00:18:18.856Z,60.96
2023-04-09T00:19:18.799Z,63.68
2023-04-09T00:20:18.813Z,62.41
2023-04-09T00:21:18.785Z,57.93
2023-04-09T00:22:18.797Z,61.97
2023-04-09T00:23:18.786Z,61.79
2023-04-09T00:24:18.798Z,58.83
2023-04-09T00:25:18.796Z,57.80
2023-04-09T00:26:18.748Z,56.33
2023-04-09T00:27:18.723Z,57.20
2023-04-09T00:28:18.736Z,61.33
2023-04-09T00:29:18.727Z,59.62
2023-04-09T00:30:18.734Z,60.92
2023-04-09T00:31:20.602Z,64.59
2023-04-09T00:32:18.750Z,59.87
2023-04-09T00:33:18.687Z,62.36
2023-04-09T00:34:18.763Z,61.12
2023-04-09T00:35:18.696Z,57.20
2023-04-09T00:36:18.675Z,58.32
2023-04-09T00:37:18.678Z,57.91
2023-04-09T00:38:18.683Z,57.15
2023-04-09T00:39:18.708Z,61.55
2023-04-09T00:40:18.714Z,61.36
2023-04-09T00:41:18.636Z,57.07
2023-04-09T00:42:18.643Z,57.35
2023-04-09T00:43:18.670Z,61.11
2023-04-09T00:44:18.632Z,60.63
2023-04-09T00:45:18.645Z,59.81
2023-04-09T00:46:18.717Z,56.86
2023-04-09T00:47:18.593Z,59.27
2023-04-09T00:48:18.584Z,57.65
2023-04-09T00:49:18.597Z,62.04
2023-04-09T00:50:18.598Z,55.70
2023-04-09T00:51:18.569Z,59.37
2023-04-09T00:52:18.527Z,60.94
2023-04-09T00:53:18.591Z,58.54
2023-04-09T00:54:18.546Z,60.57
2023-04-09T00:55:18.527Z,62.48
2023-04-09T00:56:18.538Z,61.28
2023-04-09T00:57:18.610Z,61.14
2023-04-09T00:58:18.544Z,62.98
2023-04-09T00:59:18.559Z,62.59
2023-04-09T01:00:18.580Z,58.58
2023-04-09T01:01:18.613Z,59.36
2023-04-09T01:02:18.641Z,57.57
2023-04-09T01:03:18.656Z,61.86
2023-04-09T01:04:18.566Z,58.53
2023-04-09T01:05:18.555Z,58.42
2023-04-09T01:06:18.561Z,58.79
2023-04-09T01:07:18.574Z,60.50
2023-04-09T01:08:18.585Z,59.98
2023-04-09T01:09:18.586Z,53.27
2023-04-09T01:10:18.594Z,59.90
2023-04-09T01:11:18.561Z,63.00
2023-04-09T01:12:18.538Z,59.52
2023-04-09T01:13:18.625Z,60.43
2023-04-09T01:14:18.614Z,60.67
2023-04-09T01:15:18.554Z,58.46
2023-04-09T01:16:18.584Z,60.37
2023-04-09T01:17:18.566Z,58.61
2023-04-09T01:18:18.608Z,57.91
2023-04-09T01:19:18.578Z,57.95
2023-04-09T01:20:18.616Z,57.16
2023-04-09T01:21:18.599Z,59.45
2023-04-09T01:22:18.597Z,60.94
2023-04-09T01:23:18.648Z,56.18
2023-04-09T01:24:18.650Z,57.73
2023-04-09T01:25:18.590Z,57.93
2023-04-09T01:26:18.600Z,62.33
2023-04-09T01:27:18.596Z,58.44
2023-04-09T01:28:18.664Z,60.54
2023-04-09T01:29:18.637Z,56.45
2023-04-09T01:30:18.662Z,56.96
2023-04-09T01:31:18.669Z,58.52
2023-04-09T01:32:18.730Z,59.78
2023-04-09T01:33:18.682Z,57.13
2023-04-09T01:34:18.654Z,59.16
2023-04-09T01:35:18.659Z,55.37
2023-04-09T01:36:18.733Z,60.55
2023-04-09T01:37:18.676Z,61.65
2023-04-09T01:38:18.689Z,57.41
2023-04-09T01:39:18.748Z,61.42
2023-04-09T01:40:18.746Z,60.66
2023-04-09T01:41:18.702Z,55.77
2023-04-09T01:42:18.699Z,55.64
2023-04-09T01:43:18.718Z,56.69
2023-04-09T01:44:18.722Z,54.23
2023-04-09T01:45:18.737Z,58.06
2023-04-09T01:46:18.770Z,57.07
2023-04-09T01:47:18.694Z,57.97
2023-04-09T01:48:18.698Z,61.35
2023-04-09T01:49:18.955Z,58.77
2023-04-09T01:50:18.774Z,58.14
2023-04-09T01:51:18.724Z,58.70
2023-04-09T01:52:18.778Z,57.23
2023-04-09T01:53:18.819Z,55.40
2023-04-09T01:54:18.781Z,58.09
2023-04-09T01:55:18.791Z,61.68
2023-04-09T01:56:18.806Z,58.19
2023-04-09T01:57:18.806Z,55.64
2023-04-09T01:58:18.823Z,57.63
2023-04-09T01:59:18.827Z,58.04
2023-04-09T02:00:18.832Z,58.95
2023-04-09T02:01:18.858Z,58.14
2023-04-09T02:02:19.028Z,58.59
2023-04-09T02:03:18.972Z,56.81
2023-04-09T02:04:18.874Z,59.81
2023-04-09T02:05:18.870Z,58.42
2023-04-09T02:06:18.871Z,59.54
2023-04-09T02:07:18.946Z,61.46
2023-04-09T02:08:18.916Z,58.27
2023-04-09T02:09:18.944Z,59.17
2023-04-09T02:10:18.894Z,55.44
2023-04-09T02:11:18.959Z,57.18
2023-04-09T02:12:19.014Z,58.07
2023-04-09T02:13:18.977Z,60.94
2023-04-09T02:14:18.993Z,55.12
2023-04-09T02:15:18.972Z,54.46
2023-04-09T02:16:19.055Z,55.21
2023-04-09T02:17:19.004Z,59.13
2023-04-09T02:18:19.015Z,58.12
2023-04-09T02:19:19.029Z,59.23
2023-04-09T02:20:18.995Z,60.76
2023-04-09T02:21:19.005Z,59.34
2023-04-09T02:22:19.049Z,55.79
2023-04-09T02:23:19.511Z,59.72
2023-04-09T02:24:19.017Z,62.15
2023-04-09T02:25:19.053Z,60.98
2023-04-09T02:26:19.122Z,58.90
2023-04-09T02:27:19.061Z,62.57
2023-04-09T02:28:19.132Z,56.68
2023-04-09T02:29:19.052Z,62.19
2023-04-09T02:30:19.093Z,63.05
2023-04-09T02:31:19.118Z,64.33
2023-04-09T02:32:19.078Z,61.81
2023-04-09T02:33:19.160Z,60.12
2023-04-09T02:34:19.086Z,62.43
2023-04-09T02:35:19.097Z,61.77
2023-04-09T02:36:19.107Z,58.04
2023-04-09T02:37:19.111Z,61.40
2023-04-09T02:38:19.120Z,62.87
2023-04-09T02:39:19.118Z,60.78
2023-04-09T02:40:19.172Z,60.81
2023-04-09T02:41:19.169Z,58.39
2023-04-09T02:42:19.171Z,59.98
2023-04-09T02:43:19.177Z,58.17
2023-04-09T02:44:19.189Z,61.97
2023-04-09T02:45:19.172Z,59.63
2023-04-09T02:46:19.241Z,58.41
2023-04-09T02:47:19.244Z,60.33
2023-04-09T02:48:19.211Z,59.32
2023-04-09T02:49:19.224Z,57.50
2023-04-09T02:50:19.235Z,59.76
2023-04-09T02:51:19.231Z,61.64
2023-04-09T02:52:19.296Z,63.12
2023-04-09T02:53:19.247Z,58.03
2023-04-09T02:54:19.255Z,62.72
2023-04-09T02:55:19.275Z,60.88
2023-04-09T02:56:19.311Z,62.12
2023-04-09T02:57:19.337Z,63.01
2023-04-09T02:58:19.334Z,61.34
2023-04-09T02:59:19.344Z,57.93
2023-04-09T03:00:19.356Z,57.46
2023-04-09T03:01:19.374Z,61.45
2023-04-09T03:02:19.424Z,61.29
2023-04-09T03:03:19.559Z,58.69
2023-04-09T03:04:19.344Z,59.53
2023-04-09T03:05:19.376Z,59.71
2023-04-09T03:06:19.354Z,58.17
2023-04-09T03:07:19.399Z,59.33
2023-04-09T03:08:19.402Z,60.11
2023-04-09T03:09:19.360Z,60.15
2023-04-09T03:10:19.419Z,63.18
2023-04-09T03:11:19.420Z,55.61
2023-04-09T03:12:19.454Z,56.67
2023-04-09T03:13:19.443Z,58.23
2023-04-09T03:14:19.447Z,61.93
2023-04-09T03:15:19.447Z,62.57
2023-04-09T03:16:19.540Z,60.72
2023-04-09T03:17:19.464Z,60.59
2023-04-09T03:18:19.466Z,63.81
2023-04-09T03:19:19.473Z,61.61
2023-04-09T03:20:19.539Z,59.55
2023-04-09T03:21:19.548Z,61.38
2023-04-09T03:22:19.548Z,63.74
2023-04-09T03:23:19.558Z,65.47
2023-04-09T03:24:19.569Z,61.40
2023-04-09T03:25:19.785Z,62.23
2023-04-09T03:26:19.642Z,58.92
2023-04-09T03:27:19.631Z,57.14
2023-04-09T03:28:19.642Z,58.21
2023-04-09T03:29:19.648Z,63.57
2023-04-09T03:30:19.658Z,60.49
2023-04-09T03:31:19.825Z,60.10
2023-04-09T03:32:19.662Z,59.99
2023-04-09T03:33:19.674Z,61.82
2023-04-09T03:34:19.695Z,61.30
2023-04-09T03:35:19.746Z,58.43
2023-04-09T03:36:19.749Z,57.20
2023-04-09T03:37:19.745Z,59.33
2023-04-09T03:38:19.758Z,62.89
2023-04-09T03:39:19.824Z,60.49
2023-04-09T03:40:19.841Z,60.22
2023-04-09T03:41:19.833Z,61.93
2023-04-09T03:42:19.850Z,58.53
2023-04-09T03:43:19.857Z,61.18
2023-04-09T03:44:19.844Z,59.68
2023-04-09T03:45:19.861Z,61.35
2023-04-09T03:46:19.893Z,56.68
2023-04-09T03:47:19.940Z,54.78
2023-04-09T03:48:19.936Z,60.41
2023-04-09T03:49:19.943Z,60.76
2023-04-09T03:50:19.940Z,61.88
2023-04-09T03:51:19.947Z,57.77
2023-04-09T03:52:19.952Z,60.81
2023-04-09T03:53:19.959Z,59.31
2023-04-09T03:54:20.016Z,61.47
2023-04-09T03:55:20.034Z,57.88
2023-04-09T03:56:19.997Z,55.27
2023-04-09T03:57:20.058Z,58.02
2023-04-09T03:58:20.052Z,56.21
2023-04-09T03:59:20.057Z,59.11
2023-04-09T04:00:20.061Z,57.84
2023-04-09T04:01:20.072Z,56.89
2023-04-09T04:02:20.221Z,57.98
2023-04-09T04:03:20.197Z,56.58
2023-04-09T04:04:23.415Z,59.63
2023-04-09T04:05:20.105Z,62.44
2023-04-09T04:06:20.116Z,58.97
2023-04-09T04:07:20.210Z,54.85
2023-04-09T04:08:20.211Z,55.65
2023-04-09T04:09:20.065Z,59.53
2023-04-09T04:10:20.077Z,63.35
2023-04-09T04:11:20.073Z,62.09
2023-04-09T04:12:20.053Z,58.75
2023-04-09T04:13:20.098Z,56.10
2023-04-09T04:14:20.048Z,58.16
2023-04-09T04:15:20.079Z,57.14
2023-04-09T04:16:20.042Z,58.95
2023-04-09T04:17:20.042Z,56.42
2023-04-09T04:18:20.020Z,61.68
2023-04-09T04:19:19.988Z,60.59
2023-04-09T04:20:19.993Z,59.74
2023-04-09T04:21:20.004Z,61.22
2023-04-09T04:22:20.011Z,61.43
2023-04-09T04:23:20.008Z,61.28
2023-04-09T04:24:19.955Z,59.12
2023-04-09T04:25:19.977Z,62.22
2023-04-09T04:26:19.974Z,57.91
2023-04-09T04:27:19.940Z,60.44
2023-04-09T04:28:19.941Z,62.76
2023-04-09T04:29:19.957Z,58.22
2023-04-09T04:30:19.901Z,58.96
2023-04-09T04:31:19.939Z,61.31
2023-04-09T04:32:19.920Z,61.39
2023-04-09T04:33:19.930Z,57.75
2023-04-09T04:34:19.884Z,59.96
2023-04-09T04:35:19.932Z,57.93
2023-04-09T04:36:19.900Z,57.09
2023-04-09T04:37:19.912Z,56.84
2023-04-09T04:38:19.853Z,58.99
2023-04-09T04:39:19.859Z,58.55
2023-04-09T04:40:19.915Z,54.88
2023-04-09T04:41:19.830Z,59.35
2023-04-09T04:42:19.842Z,61.82
2023-04-09T04:43:19.857Z,60.79
2023-04-09T04:44:19.848Z,59.38
2023-04-09T04:45:19.825Z,59.31
2023-04-09T04:46:19.843Z,60.29
2023-04-09T04:47:19.806Z,60.78
2023-04-09T04:48:19.815Z,60.78
2023-04-09T04:49:19.789Z,57.66
2023-04-09T04:50:19.773Z,56.66
2023-04-09T04:51:19.792Z,59.59
2023-04-09T04:52:19.737Z,59.79
2023-04-09T04:53:19.812Z,59.96
2023-04-09T04:54:19.753Z,56.70
2023-04-09T04:55:19.774Z,59.52
2023-04-09T04:56:19.719Z,56.72
2023-04-09T04:57:19.781Z,58.61
2023-04-09T04:58:20.562Z,60.74
2023-04-09T04:59:19.755Z,56.12
2023-04-09T05:00:19.690Z,57.82
2023-04-09T05:01:19.765Z,58.20
2023-04-09T05:02:19.934Z,59.16
2023-04-09T05:03:19.754Z,59.87
2023-04-09T05:04:19.682Z,59.71
2023-04-09T05:05:19.680Z,59.85
2023-04-09T05:06:19.698Z,59.16
2023-04-09T05:07:19.706Z,60.51
2023-04-09T05:08:19.694Z,58.51
2023-04-09T05:09:22.220Z,59.29
2023-04-09T05:10:19.714Z,58.56
2023-04-09T05:11:19.733Z,60.00
2023-04-09T05:12:19.800Z,60.44
2023-04-09T05:13:19.680Z,60.70
2023-04-09T05:14:19.692Z,57.62
2023-04-09T05:15:19.645Z,58.87
2023-04-09T05:16:19.705Z,60.29
2023-04-09T05:17:19.739Z,57.09
2023-04-09T05:18:19.696Z,58.26
2023-04-09T05:19:19.680Z,55.21
2023-04-09T05:20:19.624Z,56.41
2023-04-09T05:21:19.636Z,59.32
2023-04-09T05:22:19.602Z,60.51
2023-04-09T05:23:19.603Z,58.55
2023-04-09T05:24:19.611Z,60.63
2023-04-09T05:25:19.633Z,58.24
2023-04-09T05:26:19.630Z,59.42
2023-04-09T05:27:19.567Z,59.25
2023-04-09T05:28:19.574Z,55.80
2023-04-09T05:29:19.594Z,56.89
2023-04-09T05:30:19.548Z,59.12
2023-04-09T05:31:19.596Z,56.89
2023-04-09T05:32:19.598Z,60.14
2023-04-09T05:33:19.513Z,60.64
2023-04-09T05:34:19.528Z,56.00
2023-04-09T05:35:19.594Z,59.09
2023-04-09T05:36:19.538Z,58.32
2023-04-09T05:37:19.542Z,60.76
2023-04-09T05:38:19.510Z,60.31
2023-04-09T05:39:19.515Z,60.12
2023-04-09T05:40:19.522Z,60.87
2023-04-09T05:41:19.532Z,59.17
2023-04-09T05:42:19.479Z,56.70
2023-04-09T05:43:19.478Z,60.20
2023-04-09T05:44:19.545Z,56.38
2023-04-09T05:45:19.453Z,60.68
2023-04-09T05:46:19.501Z,60.20
2023-04-09T05:47:19.506Z,58.74
2023-04-09T05:48:19.467Z,58.68
2023-04-09T05:49:19.405Z,59.73
2023-04-09T05:50:19.425Z,60.12
2023-04-09T05:51:19.434Z,61.55
2023-04-09T05:52:19.398Z,60.37
2023-04-09T05:53:19.455Z,56.63
2023-04-09T05:54:19.402Z,58.94
2023-04-09T05:55:19.405Z,56.21
2023-04-09T05:56:19.367Z,57.89
2023-04-09T05:57:19.356Z,60.40
2023-04-09T05:58:19.332Z,57.52
2023-04-09T05:59:19.350Z,60.51
2023-04-09T06:00:19.344Z,60.21
2023-04-09T06:01:19.360Z,63.05
2023-04-09T06:02:19.430Z,61.55
2023-04-09T06:03:19.541Z,59.85
2023-04-09T06:04:19.428Z,60.73
2023-04-09T06:05:19.328Z,61.81
2023-04-09T06:06:19.333Z,58.46
2023-04-09T06:07:19.350Z,61.09
2023-04-09T06:08:19.300Z,63.20
2023-04-09T06:09:19.297Z,57.97
2023-04-09T06:10:19.329Z,54.76
2023-04-09T06:11:19.271Z,59.10
2023-04-09T06:12:19.270Z,60.19
2023-04-09T06:13:19.277Z,56.32
2023-04-09T06:14:19.248Z,59.86
2023-04-09T06:15:19.243Z,60.09
2023-04-09T06:16:19.421Z,61.13
2023-04-09T06:17:19.258Z,60.97
2023-04-09T06:18:19.215Z,56.75
2023-04-09T06:19:19.264Z,58.72
2023-04-09T06:20:19.202Z,56.86
2023-04-09T06:21:19.226Z,59.39
2023-04-09T06:22:19.185Z,58.50
2023-04-09T06:23:19.194Z,59.54
2023-04-09T06:24:19.252Z,60.80
2023-04-09T06:25:19.212Z,59.51
2023-04-09T06:26:19.148Z,61.56
2023-04-09T06:27:19.161Z,60.17
2023-04-09T06:28:19.166Z,58.60
2023-04-09T06:29:19.176Z,57.72
2023-04-09T06:30:19.164Z,58.17
2023-04-09T06:31:19.254Z,56.59
2023-04-09T06:32:19.270Z,59.04
2023-04-09T06:33:19.320Z,54.81
2023-04-09T06:34:19.277Z,57.61
2023-04-09T06:35:19.266Z,58.39
2023-04-09T06:36:19.280Z,57.22
2023-04-09T06:37:19.298Z,56.77
2023-04-09T06:38:19.339Z,59.91
2023-04-09T06:39:19.341Z,59.87
2023-04-09T06:40:22.172Z,58.22
2023-04-09T06:41:19.348Z,60.10
2023-04-09T06:42:19.370Z,58.43
2023-04-09T06:43:19.337Z,59.26
2023-04-09T06:44:19.295Z,56.45
2023-04-09T06:45:19.340Z,55.72
2023-04-09T06:46:19.334Z,59.23
2023-04-09T06:47:19.295Z,60.26
2023-04-09T06:48:19.305Z,60.76
2023-04-09T06:49:19.297Z,57.93
2023-04-09T06:50:19.308Z,58.11
2023-04-09T06:51:19.283Z,61.18
2023-04-09T06:52:19.279Z,53.95
2023-04-09T06:53:19.267Z,58.41
2023-04-09T06:54:19.257Z,59.15
2023-04-09T06:55:19.253Z,57.43
2023-04-09T06:56:19.255Z,58.61
2023-04-09T06:57:19.214Z,59.63
2023-04-09T06:58:19.230Z,60.13
2023-04-09T06:59:19.232Z,60.97
2023-04-09T07:00:19.463Z,60.92
2023-04-09T07:01:19.294Z,62.24
2023-04-09T07:02:19.264Z,59.15
2023-04-09T07:03:19.307Z,59.53
2023-04-09T07:04:19.299Z,58.34
2023-04-09T07:05:19.182Z,56.75
2023-04-09T07:06:19.179Z,60.25
2023-04-09T07:07:19.185Z,59.48
2023-04-09T07:08:19.200Z,60.67
2023-04-09T07:09:19.158Z,60.45
2023-04-09T07:10:19.139Z,59.96
2023-04-09T07:11:19.143Z,57.44
2023-04-09T07:12:19.166Z,59.91
2023-04-09T07:13:19.126Z,57.76
2023-04-09T07:14:19.136Z,55.91
2023-04-09T07:15:19.151Z,55.76
2023-04-09T07:16:19.234Z,56.66
2023-04-09T07:17:19.084Z,58.42
2023-04-09T07:18:19.100Z,58.63
2023-04-09T07:19:19.107Z,56.33
2023-04-09T07:20:19.068Z,60.73
2023-04-09T07:21:19.068Z,57.15
2023-04-09T07:22:19.122Z,57.99
2023-04-09T07:23:19.110Z,59.91
2023-04-09T07:24:19.066Z,60.46
2023-04-09T07:25:19.022Z,61.34
2023-04-09T07:26:19.058Z,58.31
2023-04-09T07:27:19.069Z,56.54
2023-04-09T07:28:19.013Z,59.12
2023-04-09T07:29:19.032Z,57.55
2023-04-09T07:30:18.992Z,56.83
2023-04-09T07:31:19.125Z,56.55
2023-04-09T07:32:19.053Z,58.65
2023-04-09T07:33:18.994Z,55.17
2023-04-09T07:34:19.009Z,57.72
2023-04-09T07:35:18.971Z,56.52
2023-04-09T07:36:19.007Z,54.62
2023-04-09T07:37:18.985Z,53.46
2023-04-09T07:38:18.988Z,52.52
2023-04-09T07:39:18.953Z,52.85
2023-04-09T07:40:18.930Z,60.01
2023-04-09T07:41:18.966Z,52.90
2023-04-09T07:42:18.975Z,57.32
2023-04-09T07:43:19.759Z,53.91
2023-04-09T07:44:18.931Z,55.02
2023-04-09T07:45:18.932Z,56.55
2023-04-09T07:46:18.957Z,53.84
2023-04-09T07:47:18.959Z,54.30
2023-04-09T07:48:18.917Z,57.98
2023-04-09T07:49:18.915Z,58.29
2023-04-09T07:50:19.004Z,54.72
2023-04-09T07:51:18.971Z,54.41
2023-04-09T07:52:18.938Z,52.53
2023-04-09T07:53:19.003Z,52.63
2023-04-09T07:54:19.000Z,54.15
2023-04-09T07:55:18.996Z,49.22
2023-04-09T07:56:18.958Z,52.53
2023-04-09T07:57:19.045Z,51.81
2023-04-09T07:58:18.997Z,52.08
2023-04-09T07:59:18.991Z,50.16
2023-04-09T08:00:19.044Z,55.19
2023-04-09T08:01:18.990Z,56.34
2023-04-09T08:02:19.101Z,51.96
2023-04-09T08:03:19.374Z,55.13
2023-04-09T08:04:19.192Z,52.84
2023-04-09T08:05:19.105Z,53.75
2023-04-09T08:06:19.103Z,50.11
2023-04-09T08:07:19.178Z,55.70
2023-04-09T08:08:19.088Z,54.66
2023-04-09T08:09:19.104Z,53.07
2023-04-09T08:10:19.059Z,51.21
2023-04-09T08:11:19.114Z,49.78
2023-04-09T08:12:19.125Z,50.89
2023-04-09T08:13:19.121Z,51.47
2023-04-09T08:14:19.178Z,47.93
2023-04-09T08:15:19.173Z,50.38
2023-04-09T08:16:19.218Z,44.86
2023-04-09T08:17:19.216Z,51.87
2023-04-09T08:18:19.195Z,49.13
2023-04-09T08:19:19.206Z,52.28
2023-04-09T08:20:19.216Z,49.20
2023-04-09T08:21:19.218Z,52.73
2023-04-09T08:22:19.201Z,51.65
2023-04-09T08:23:19.187Z,48.09
2023-04-09T08:24:19.230Z,49.32
2023-04-09T08:25:19.215Z,51.89
2023-04-09T08:26:19.251Z,52.49
2023-04-09T08:27:19.253Z,50.41
2023-04-09T08:28:19.281Z,48.62
2023-04-09T08:29:19.324Z,49.75
2023-04-09T08:30:19.358Z,47.66
2023-04-09T08:31:19.416Z,47.55
2023-04-09T08:32:19.485Z,44.89
2023-04-09T08:33:19.465Z,47.62
2023-04-09T08:34:19.507Z,46.02
2023-04-09T08:35:19.587Z,42.84
2023-04-09T08:36:19.635Z,45.17
2023-04-09T08:37:19.728Z,44.61
2023-04-09T08:38:19.826Z,42.81
2023-04-09T08:39:19.823Z,41.49
2023-04-09T08:40:19.847Z,43.30
2023-04-09T08:41:19.955Z,38.60
2023-04-09T08:42:19.967Z,43.84
2023-04-09T08:43:20.001Z,40.19
2023-04-09T08:44:20.084Z,44.06
2023-04-09T08:45:20.158Z,42.28
2023-04-09T08:46:20.360Z,43.25
2023-04-09T08:47:20.258Z,36.65
2023-04-09T08:48:20.386Z,41.35
2023-04-09T08:49:20.400Z,35.93
2023-04-09T08:50:20.678Z,40.96
2023-04-09T08:51:20.465Z,40.65
2023-04-09T08:52:20.545Z,41.34
2023-04-09T08:53:20.620Z,37.63
2023-04-09T08:54:20.631Z,39.33
2023-04-09T08:55:20.694Z,40.84
2023-04-09T08:56:20.776Z,39.08
2023-04-09T08:57:20.826Z,40.33
2023-04-09T08:58:20.899Z,39.07
2023-04-09T08:59:20.941Z,40.50
2023-04-09T09:00:21.089Z,36.72
2023-04-09T09:01:21.169Z,39.00
2023-04-09T09:02:21.203Z,41.17
2023-04-09T09:03:21.298Z,40.35
2023-04-09T09:04:21.274Z,36.73
2023-04-09T09:05:21.325Z,32.75
2023-04-09T09:06:21.321Z,37.79
2023-04-09T09:07:21.437Z,36.84
2023-04-09T09:08:21.476Z,39.64
2023-04-09T09:09:21.507Z,38.02
2023-04-09T09:10:21.539Z,34.29
2023-04-09T09:11:21.606Z,36.50
2023-04-09T09:12:21.671Z,36.25
2023-04-09T09:13:21.683Z,36.00
2023-04-09T09:14:21.689Z,38.88
2023-04-09T09:15:21.734Z,35.18
2023-04-09T09:16:21.749Z,37.65
2023-04-09T09:17:21.777Z,37.18
2023-04-09T09:18:21.812Z,37.45
2023-04-09T09:19:21.883Z,37.86
2023-04-09T09:20:21.879Z,33.60
2023-04-09T09:21:21.893Z,36.86
2023-04-09T09:22:21.901Z,35.93
2023-04-09T09:23:21.912Z,34.18
2023-04-09T09:24:21.965Z,33.15
2023-04-09T09:25:22.018Z,33.01
2023-04-09T09:26:22.018Z,35.03
2023-04-09T09:27:22.085Z,33.80
2023-04-09T09:28:22.081Z,32.00
2023-04-09T09:29:22.150Z,35.14
2023-04-09T09:30:22.164Z,31.05
2023-04-09T09:31:22.216Z,33.68
2023-04-09T09:32:22.229Z,31.86
2023-04-09T09:33:22.226Z,35.97
2023-04-09T09:34:22.291Z,33.41
2023-04-09T09:35:22.277Z,30.20
2023-04-09T09:36:22.294Z,32.98
2023-04-09T09:37:22.310Z,29.31
2023-04-09T09:38:22.374Z,30.44
2023-04-09T09:39:22.387Z,27.72
2023-04-09T09:40:22.347Z,31.71
2023-04-09T09:41:22.365Z,28.66
2023-04-09T09:42:22.352Z,32.33
2023-04-09T09:43:22.417Z,30.72
2023-04-09T09:44:22.344Z,31.10
2023-04-09T09:45:22.385Z,31.72
2023-04-09T09:46:22.439Z,31.52
2023-04-09T09:47:22.352Z,32.75
2023-04-09T09:48:22.401Z,31.25
2023-04-09T09:49:22.405Z,33.65
2023-04-09T09:50:22.372Z,33.37
2023-04-09T09:51:22.384Z,33.57
2023-04-09T09:52:22.442Z,33.14
2023-04-09T09:53:22.468Z,36.61
2023-04-09T09:54:22.404Z,34.87
2023-04-09T09:55:22.387Z,33.19
2023-04-09T09:56:22.355Z,33.03
2023-04-09T09:57:22.351Z,31.73
2023-04-09T09:58:22.330Z,35.01
2023-04-09T09:59:22.403Z,30.71
2023-04-09T10:00:23.825Z,32.27
2023-04-09T10:01:23.102Z,31.20
2023-04-09T10:02:22.551Z,30.91
2023-04-09T10:03:22.492Z,32.71
2023-04-09T10:04:22.565Z,34.09
2023-04-09T10:05:22.583Z,35.44
2023-04-09T10:06:22.604Z,34.00
2023-04-09T10:07:22.613Z,34.16
2023-04-09T10:08:22.643Z,35.65
2023-04-09T10:09:22.737Z,32.29
2023-04-09T10:10:22.790Z,33.11
2023-04-09T10:11:22.839Z,34.79
2023-04-09T10:12:22.870Z,32.63
2023-04-09T10:13:22.881Z,34.73
2023-04-09T10:14:22.976Z,33.54
2023-04-09T10:15:23.033Z,33.67
2023-04-09T10:16:23.340Z,32.23
2023-04-09T10:17:23.184Z,32.86
2023-04-09T10:18:23.178Z,34.06
2023-04-09T10:19:23.284Z,35.00
2023-04-09T10:20:23.305Z,34.82
2023-04-09T10:21:23.377Z,32.76
2023-04-09T10:22:23.438Z,32.33
2023-04-09T10:23:23.467Z,34.79
2023-04-09T10:24:23.567Z,31.65
2023-04-09T10:25:23.641Z,33.81
2023-04-09T10:26:23.666Z,34.87
2023-04-09T10:27:23.743Z,34.96
2023-04-09T10:28:23.755Z,31.92
2023-04-09T10:29:23.873Z,33.19
2023-04-09T10:30:23.813Z,33.10
2023-04-09T10:31:24.024Z,32.98
2023-04-09T10:32:24.030Z,32.73
2023-04-09T10:33:23.980Z,34.07
2023-04-09T10:34:24.028Z,32.42
2023-04-09T10:35:24.111Z,32.91
2023-04-09T10:36:24.261Z,35.42
2023-04-09T10:37:24.161Z,35.07
2023-04-09T10:38:24.243Z,36.24
2023-04-09T10:39:24.286Z,33.83
2023-04-09T10:40:24.350Z,33.58
2023-04-09T10:41:24.350Z,33.88
2023-04-09T10:42:24.383Z,31.83
2023-04-09T10:43:24.473Z,32.46
2023-04-09T10:44:24.506Z,35.03
2023-04-09T10:45:24.598Z,30.49
2023-04-09T10:46:24.614Z,31.83
2023-04-09T10:47:24.700Z,34.77
2023-04-09T10:48:24.665Z,34.82
2023-04-09T10:49:24.916Z,32.67
2023-04-09T10:50:24.824Z,34.68
2023-04-09T10:51:24.828Z,35.01
2023-04-09T10:52:24.893Z,34.99
2023-04-09T10:53:24.990Z,32.62
2023-04-09T10:54:24.990Z,32.15
2023-04-09T10:55:25.013Z,31.35
2023-04-09T10:56:25.073Z,34.28
2023-04-09T10:57:25.079Z,32.74
2023-04-09T10:58:25.161Z,30.60
2023-04-09T10:59:25.188Z,31.62
2023-04-09T11:00:25.254Z,31.64
2023-04-09T11:01:25.244Z,31.49
2023-04-09T11:02:25.349Z,32.95
2023-04-09T11:03:25.429Z,33.85
2023-04-09T11:04:25.376Z,33.39
2023-04-09T11:05:25.401Z,35.76
2023-04-09T11:06:25.374Z,34.60
2023-04-09T11:07:25.465Z,34.98
2023-04-09T11:08:25.458Z,36.87
2023-04-09T11:09:25.574Z,35.13
2023-04-09T11:10:25.573Z,37.72
2023-04-09T11:11:25.676Z,34.74
2023-04-09T11:12:25.669Z,33.10
2023-04-09T11:13:25.699Z,35.33
2023-04-09T11:14:25.744Z,32.77
2023-04-09T11:15:25.751Z,35.10
2023-04-09T11:16:27.863Z,31.38
2023-04-09T11:17:25.837Z,35.03
2023-04-09T11:18:25.837Z,34.91
2023-04-09T11:19:25.788Z,33.73
2023-04-09T11:20:25.789Z,32.54
2023-04-09T11:21:25.786Z,35.45
2023-04-09T11:22:25.779Z,34.38
2023-04-09T11:23:25.758Z,35.18
2023-04-09T11:24:25.770Z,34.30
2023-04-09T11:25:25.776Z,37.70
2023-04-09T11:26:25.775Z,34.45
2023-04-09T11:27:25.827Z,37.40
2023-04-09T11:28:25.731Z,35.03
2023-04-09T11:29:25.728Z,32.81
2023-04-09T11:30:25.751Z,35.03
2023-04-09T11:31:25.758Z,36.51
2023-04-09T11:32:25.820Z,35.43
2023-04-09T11:33:25.732Z,34.41
2023-04-09T11:34:25.663Z,34.91
2023-04-09T11:35:25.687Z,33.31
2023-04-09T11:36:25.685Z,35.09
2023-04-09T11:37:25.690Z,33.60
2023-04-09T11:38:25.683Z,33.58
2023-04-09T11:39:25.692Z,34.22
2023-04-09T11:40:25.787Z,36.03
2023-04-09T11:41:25.725Z,35.09
2023-04-09T11:42:25.635Z,35.23
2023-04-09T11:43:25.629Z,35.06
2023-04-09T11:44:25.634Z,37.94
2023-04-09T11:45:25.660Z,39.28
2023-04-09T11:46:25.629Z,41.05
2023-04-09T11:47:25.655Z,41.81
2023-04-09T11:48:25.629Z,38.02
2023-04-09T11:49:25.681Z,42.94
2023-04-09T11:50:25.573Z,40.39
2023-04-09T11:51:25.594Z,38.98
2023-04-09T11:52:25.546Z,36.63
2023-04-09T11:53:25.565Z,37.45
2023-04-09T11:54:25.564Z,37.09
2023-04-09T11:55:25.581Z,38.57
2023-04-09T11:56:25.581Z,37.52
2023-04-09T11:57:25.506Z,39.14
2023-04-09T11:58:25.605Z,38.73
2023-04-09T11:59:25.529Z,38.79
2023-04-09T12:00:25.575Z,36.63
2023-04-09T12:01:25.522Z,37.47
2023-04-09T12:02:25.632Z,40.87
2023-04-09T12:03:25.688Z,38.25
2023-04-09T12:04:25.580Z,38.21
2023-04-09T12:05:25.471Z,36.54
2023-04-09T12:06:25.582Z,39.41
2023-04-09T12:07:25.508Z,39.86
2023-04-09T12:08:25.473Z,38.86
2023-04-09T12:09:25.491Z,36.90
2023-04-09T12:10:25.472Z,37.06
2023-04-09T12:11:25.729Z,36.92
2023-04-09T12:12:25.485Z,34.77
2023-04-09T12:13:25.422Z,36.98
2023-04-09T12:14:25.445Z,38.32
2023-04-09T12:15:25.485Z,37.20
2023-04-09T12:16:25.425Z,38.72
2023-04-09T12:17:25.358Z,40.95
2023-04-09T12:18:25.470Z,39.20
2023-04-09T12:19:25.427Z,41.41
2023-04-09T12:20:25.361Z,39.72
2023-04-09T12:21:25.388Z,38.80
2023-04-09T12:22:25.374Z,40.61
2023-04-09T12:23:25.378Z,38.40
2023-04-09T12:24:25.350Z,40.35
2023-04-09T12:25:25.370Z,40.63
2023-04-09T12:26:25.373Z,38.46
2023-04-09T12:27:25.385Z,39.08
2023-04-09T12:28:25.340Z,40.28
2023-04-09T12:29:25.399Z,38.71
2023-04-09T12:30:25.405Z,39.96
2023-04-09T12:31:25.492Z,38.30
2023-04-09T12:32:25.450Z,38.90
2023-04-09T12:33:25.450Z,41.09
2023-04-09T12:34:25.532Z,43.66
2023-04-09T12:35:25.674Z,44.74
2023-04-09T12:36:25.548Z,35.94
2023-04-09T12:37:25.573Z,41.88
2023-04-09T12:38:25.552Z,39.39
2023-04-09T12:39:25.564Z,42.51
2023-04-09T12:40:25.562Z,41.23
2023-04-09T12:41:25.572Z,40.46
2023-04-09T12:42:25.628Z,33.17
2023-04-09T12:43:25.649Z,30.83
2023-04-09T12:44:25.628Z,25.61
2023-04-09T12:45:25.641Z,26.05
2023-04-09T12:46:25.656Z,27.38
2023-04-09T12:47:25.709Z,28.77
2023-04-09T12:48:25.716Z,26.95
2023-04-09T12:49:25.732Z,30.32
2023-04-09T12:50:25.751Z,31.48
2023-04-09T12:51:25.700Z,30.80
2023-04-09T12:52:25.750Z,29.57